Time;durP1;ratioP1;P1;durP2;ratioP2;P2;SDS_P1;SDS_P2;PMS_P1;PMS_P2;Temp;Humidity;BMP_temperature;BMP_pressure;BME280_temperature;BME280_humidity;BME280_pressure;Samples;Min_cycle;Max_cycle;Signal;HPM_P1;HPM_P2
2024/04/08 00:00:31;;;;;;;11.02;2.47;;;;;;;;;;5413867;26;20011;-66
2024/04/08 00:02:57;;;;;;;10.38;2.38;;;;;;;;;;5418589;26;20011;-67
2024/04/08 00:05:22;;;;;;;14.20;2.85;;;;;;;;;;5418616;26;19995;-66
2024/04/08 00:07:48;;;;;;;11.52;2.58;;;;;;;;;;5412770;26;19991;-67
2024/04/08 00:10:13;;;;;;;12.57;2.63;;;;;;;;;;5416302;26;20270;-67
2024/04/08 00:12:39;;;;;;;10.75;2.17;;;;;;;;;;5418803;26;20076;-67
2024/04/08 00:15:05;;;;;;;6.82;2.05;;;;;;;;;;5422349;26;20561;-66
2024/04/08 00:17:30;;;;;;;13.35;2.38;;;;;;;;;;5408551;26;20017;-67
2024/04/08 00:19:55;;;;;;;7.32;2.72;;;;;;;;;;5404573;26;20004;-67
2024/04/08 00:22:20;;;;;;;3.10;1.70;;;;;;;;;;5411407;26;19996;-66
2024/04/08 00:24:50;;;;;;;4.75;1.70;;;;;;;;;;5418354;26;20869;-66
2024/04/08 00:27:15;;;;;;;4.75;1.90;;;;;;;;;;5407340;26;20007;-66
2024/04/08 00:29:40;;;;;;;8.93;2.50;;;;;;;;;;5404822;26;20000;-66
2024/04/08 00:32:06;;;;;;;5.20;1.90;;;;;;;;;;5421021;26;19999;-67
2024/04/08 00:34:31;;;;;;;9.47;2.33;;;;;;;;;;5412124;26;20269;-67
2024/04/08 00:36:56;;;;;;;7.50;1.83;;;;;;;;;;5410087;26;20680;-67
2024/04/08 00:39:21;;;;;;;13.05;2.35;;;;;;;;;;5401931;26;20326;-66
2024/04/08 00:41:46;;;;;;;5.33;2.30;;;;;;;;;;5408742;26;19996;-66
2024/04/08 00:44:12;;;;;;;9.83;2.97;;;;;;;;;;5415794;26;20237;-67
2024/04/08 00:46:37;;;;;;;10.77;2.50;;;;;;;;;;5410267;26;20764;-67
2024/04/08 00:49:03;;;;;;;7.53;2.38;;;;;;;;;;5405157;26;20325;-66
2024/04/08 00:51:28;;;;;;;7.35;2.50;;;;;;;;;;5408728;26;20348;-66
2024/04/08 00:53:53;;;;;;;7.13;2.35;;;;;;;;;;5418101;26;19991;-66
2024/04/08 00:56:19;;;;;;;7.13;2.20;;;;;;;;;;5413331;26;20010;-66
2024/04/08 00:58:44;;;;;;;12.13;3.03;;;;;;;;;;5407521;26;19988;-66
2024/04/08 01:01:10;;;;;;;12.32;3.25;;;;;;;;;;5417753;26;19996;-66
2024/04/08 01:03:36;;;;;;;8.80;2.47;;;;;;;;;;5411865;26;20323;-66
2024/04/08 01:06:01;;;;;;;7.10;2.13;;;;;;;;;;5410962;26;20020;-66
2024/04/08 01:08:26;;;;;;;8.73;2.38;;;;;;;;;;5421999;26;20233;-67
2024/04/08 01:10:57;;;;;;;15.80;2.10;;;;;;;;;;5410010;26;19995;-67
2024/04/08 01:13:22;;;;;;;14.82;3.55;;;;;;;;;;5403841;26;20335;-66
2024/04/08 01:15:47;;;;;;;7.38;2.00;;;;;;;;;;5415953;26;19996;-67
2024/04/08 01:18:13;;;;;;;8.73;2.05;;;;;;;;;;5403038;26;20008;-67
2024/04/08 01:20:38;;;;;;;5.63;1.93;;;;;;;;;;5423457;26;20002;-67
2024/04/08 01:23:03;;;;;;;14.48;2.97;;;;;;;;;;5405336;26;20727;-69
2024/04/08 01:25:29;;;;;;;12.88;2.78;;;;;;;;;;5408750;26;20622;-67
2024/04/08 01:27:54;;;;;;;8.23;2.58;;;;;;;;;;5405173;26;20340;-67
2024/04/08 01:30:20;;;;;;;14.60;2.28;;;;;;;;;;5411677;26;19995;-67
2024/04/08 01:32:45;;;;;;;18.35;3.00;;;;;;;;;;5402601;26;20467;-67
2024/04/08 01:35:10;;;;;;;9.87;2.70;;;;;;;;;;5408085;26;20008;-68
2024/04/08 01:37:36;;;;;;;13.30;2.33;;;;;;;;;;5398398;26;20238;-67
2024/04/08 01:40:01;;;;;;;6.40;2.30;;;;;;;;;;5391860;26;20006;-67
2024/04/08 01:42:26;;;;;;;7.60;3.27;;;;;;;;;;5400067;26;20221;-67
2024/04/08 01:44:51;;;;;;;7.40;2.83;;;;;;;;;;5408972;26;20233;-67
2024/04/08 01:47:16;;;;;;;12.02;2.85;;;;;;;;;;5409549;26;20615;-67
2024/04/08 01:49:42;;;;;;;13.98;2.88;;;;;;;;;;5400506;26;20043;-67
2024/04/08 01:52:07;;;;;;;10.20;3.00;;;;;;;;;;5398230;26;20016;-67
2024/04/08 01:54:32;;;;;;;6.33;2.70;;;;;;;;;;5407902;26;20282;-67
2024/04/08 01:56:57;;;;;;;10.27;3.70;;;;;;;;;;5405083;26;20229;-67
2024/04/08 01:59:22;;;;;;;13.10;3.50;;;;;;;;;;5411694;26;19992;-68
2024/04/08 02:01:48;;;;;;;11.50;4.07;;;;;;;;;;5407953;26;20077;-67
2024/04/08 02:04:13;;;;;;;9.80;3.47;;;;;;;;;;5412144;26;20363;-68
2024/04/08 02:06:38;;;;;;;15.93;6.57;;;;;;;;;;5406208;26;20858;-67
2024/04/08 02:09:03;;;;;;;8.50;3.60;;;;;;;;;;5411746;26;19987;-68
2024/04/08 02:11:28;;;;;;;11.70;4.33;;;;;;;;;;5409480;26;20273;-67
2024/04/08 02:13:53;;;;;;;14.47;4.07;;;;;;;;;;5405070;26;20576;-67
2024/04/08 02:16:20;;;;;;;16.63;5.10;;;;;;;;;;5415324;26;20233;-67
2024/04/08 02:18:49;;;;;;;14.88;5.43;;;;;;;;;;5412607;26;20233;-67
2024/04/08 02:21:14;;;;;;;14.70;5.15;;;;;;;;;;5405764;26;20339;-67
2024/04/08 02:23:39;;;;;;;14.93;5.30;;;;;;;;;;5407577;26;20067;-67
2024/04/08 02:26:04;;;;;;;22.03;5.60;;;;;;;;;;5414479;26;20258;-67
2024/04/08 02:28:30;;;;;;;12.47;3.97;;;;;;;;;;5414513;26;20229;-67
2024/04/08 02:30:59;;;;;;;16.42;4.93;;;;;;;;;;5414068;26;20609;-68
2024/04/08 02:33:31;;;;;;;9.10;4.65;;;;;;;;;;5405738;26;20027;-67
2024/04/08 02:36:05;;;;;;;8.10;4.10;;;;;;;;;;5415972;26;20051;-69
2024/04/08 02:38:31;;;;;;;12.93;5.40;;;;;;;;;;5402825;26;20080;-67
2024/04/08 02:40:56;;;;;;;12.07;5.00;;;;;;;;;;5402794;26;19996;-67
2024/04/08 02:43:24;;;;;;;10.10;4.67;;;;;;;;;;5407852;26;20276;-67
2024/04/08 02:45:50;;;;;;;14.20;5.30;;;;;;;;;;5408198;26;20285;-68
2024/04/08 02:48:15;;;;;;;15.80;4.72;;;;;;;;;;5412314;26;19999;-68
2024/04/08 02:50:44;;;;;;;16.00;4.97;;;;;;;;;;5412008;26;20417;-68
2024/04/08 02:53:10;;;;;;;15.93;5.20;;;;;;;;;;5408161;26;20016;-67
2024/04/08 02:55:35;;;;;;;14.18;4.93;;;;;;;;;;5404456;26;19996;-68
2024/04/08 02:58:00;;;;;;;17.40;5.53;;;;;;;;;;5413015;26;20446;-68
2024/04/08 03:00:26;;;;;;;14.25;5.28;;;;;;;;;;5417349;26;20237;-68
2024/04/08 03:02:51;;;;;;;16.58;6.82;;;;;;;;;;5415597;26;20011;-68
2024/04/08 03:05:16;;;;;;;12.03;5.23;;;;;;;;;;5414659;26;19991;-68
2024/04/08 03:07:41;;;;;;;15.65;6.43;;;;;;;;;;5406354;26;20232;-68
2024/04/08 03:10:07;;;;;;;14.63;5.60;;;;;;;;;;5411385;26;20018;-68
2024/04/08 03:12:32;;;;;;;20.15;7.15;;;;;;;;;;5403749;26;20230;-68
2024/04/08 03:14:57;;;;;;;32.10;6.20;;;;;;;;;;5407491;26;20044;-68
2024/04/08 03:17:22;;;;;;;19.03;7.53;;;;;;;;;;5408800;26;20719;-68
2024/04/08 03:19:50;;;;;;;17.80;5.88;;;;;;;;;;5415147;26;20238;-68
2024/04/08 03:22:16;;;;;;;14.75;7.78;;;;;;;;;;5415935;26;20015;-69
2024/04/08 03:24:41;;;;;;;17.38;8.45;;;;;;;;;;5400440;26;20007;-68
2024/04/08 03:27:06;;;;;;;18.47;8.13;;;;;;;;;;5412732;26;20371;-68
2024/04/08 03:29:31;;;;;;;22.83;8.20;;;;;;;;;;5410122;26;20236;-68
2024/04/08 03:31:56;;;;;;;26.23;8.60;;;;;;;;;;5406697;26;20277;-68
2024/04/08 03:34:21;;;;;;;17.27;8.43;;;;;;;;;;5405129;26;20270;-68
2024/04/08 03:36:47;;;;;;;19.60;7.32;;;;;;;;;;5405090;26;20245;-68
2024/04/08 03:39:12;;;;;;;27.38;8.80;;;;;;;;;;5412459;26;19996;-68
2024/04/08 03:41:37;;;;;;;16.73;7.70;;;;;;;;;;5400109;26;20004;-68
2024/04/08 03:44:02;;;;;;;23.27;7.77;;;;;;;;;;5402640;26;20041;-68
2024/04/08 03:46:27;;;;;;;31.98;9.23;;;;;;;;;;5409949;26;20263;-68
2024/04/08 03:48:53;;;;;;;24.13;9.23;;;;;;;;;;5411495;26;20015;-68
2024/04/08 03:51:18;;;;;;;16.92;7.25;;;;;;;;;;5407985;26;20575;-67
2024/04/08 03:53:43;;;;;;;19.27;7.75;;;;;;;;;;5408782;26;20002;-69
2024/04/08 03:56:09;;;;;;;22.38;8.27;;;;;;;;;;5396104;26;19991;-68
2024/04/08 03:58:37;;;;;;;15.15;7.03;;;;;;;;;;5403549;26;20084;-68
2024/04/08 04:01:02;;;;;;;17.27;7.35;;;;;;;;;;5396074;26;20012;-68
2024/04/08 04:03:27;;;;;;;19.70;8.32;;;;;;;;;;5401601;26;20349;-68
2024/04/08 04:05:52;;;;;;;19.52;9.00;;;;;;;;;;5413510;26;19992;-68
2024/04/08 04:08:18;;;;;;;21.20;8.30;;;;;;;;;;5411851;26;19999;-68
2024/04/08 04:10:44;;;;;;;16.80;7.77;;;;;;;;;;5399902;26;20304;-68
2024/04/08 04:13:09;;;;;;;24.90;8.68;;;;;;;;;;5395830;26;20271;-68
2024/04/08 04:15:34;;;;;;;21.47;7.93;;;;;;;;;;5416439;26;20424;-69
2024/04/08 04:18:00;;;;;;;21.17;8.43;;;;;;;;;;5401349;26;20575;-68
2024/04/08 04:20:27;;;;;;;23.20;8.32;;;;;;;;;;5410524;26;20234;-68
2024/04/08 04:22:52;;;;;;;24.83;8.75;;;;;;;;;;5407786;26;19999;-68
2024/04/08 04:25:17;;;;;;;23.83;9.50;;;;;;;;;;5412978;26;20002;-68
2024/04/08 04:27:42;;;;;;;24.33;11.52;;;;;;;;;;5404637;26;19988;-68
2024/04/08 04:30:08;;;;;;;27.77;10.10;;;;;;;;;;5398991;26;20121;-68
2024/04/08 04:32:33;;;;;;;25.90;10.13;;;;;;;;;;5401927;26;20284;-68
2024/04/08 04:34:58;;;;;;;26.45;10.50;;;;;;;;;;5405608;26;20007;-68
2024/04/08 04:37:24;;;;;;;23.43;10.10;;;;;;;;;;5409269;26;19996;-68
2024/04/08 04:39:49;;;;;;;20.42;9.80;;;;;;;;;;5416051;26;20240;-69
2024/04/08 04:42:15;;;;;;;36.80;11.53;;;;;;;;;;5414247;26;20078;-68
2024/04/08 04:44:41;;;;;;;24.33;10.85;;;;;;;;;;5401475;26;20229;-68
2024/04/08 04:47:06;;;;;;;30.80;11.77;;;;;;;;;;5400721;26;20028;-68
2024/04/08 04:49:31;;;;;;;24.83;10.23;;;;;;;;;;5400896;26;20064;-68
2024/04/08 04:51:56;;;;;;;23.50;10.53;;;;;;;;;;5408187;26;20292;-68
2024/04/08 04:54:21;;;;;;;33.43;10.07;;;;;;;;;;5400145;26;20764;-68
2024/04/08 04:56:47;;;;;;;27.95;10.65;;;;;;;;;;5389717;26;20357;-69
2024/04/08 04:59:12;;;;;;;26.70;10.32;;;;;;;;;;5409303;26;20326;-68
2024/04/08 05:01:37;;;;;;;26.30;10.65;;;;;;;;;;5400988;26;20014;-69
2024/04/08 05:04:04;;;;;;;29.02;11.82;;;;;;;;;;5387355;26;20499;-68
2024/04/08 05:06:29;;;;;;;30.52;10.50;;;;;;;;;;5395731;26;20007;-68
2024/04/08 05:08:56;;;;;;;17.63;9.40;;;;;;;;;;5395040;26;20351;-68
2024/04/08 05:11:21;;;;;;;25.95;10.15;;;;;;;;;;5401810;26;20288;-67
2024/04/08 05:13:46;;;;;;;19.63;9.60;;;;;;;;;;5401392;26;20475;-67
2024/04/08 05:16:11;;;;;;;22.20;9.90;;;;;;;;;;5393959;26;20230;-68
2024/04/08 05:18:37;;;;;;;27.90;9.90;;;;;;;;;;5391363;26;20234;-68
2024/04/08 05:21:02;;;;;;;33.50;11.00;;;;;;;;;;5399570;26;20670;-68
2024/04/08 05:23:27;;;;;;;27.35;10.98;;;;;;;;;;5390271;26;20302;-68
2024/04/08 05:25:53;;;;;;;26.98;10.23;;;;;;;;;;5403618;26;19992;-68
2024/04/08 05:28:18;;;;;;;26.90;10.38;;;;;;;;;;5397040;26;20047;-68
2024/04/08 05:30:44;;;;;;;25.13;10.40;;;;;;;;;;5399526;26;20479;-68
2024/04/08 05:33:09;;;;;;;23.73;9.57;;;;;;;;;;5397171;26;20006;-68
2024/04/08 05:35:35;;;;;;;23.52;10.48;;;;;;;;;;5398382;26;20076;-68
2024/04/08 05:38:00;;;;;;;29.50;10.20;;;;;;;;;;5399167;26;20417;-68
2024/04/08 05:40:26;;;;;;;34.13;11.80;;;;;;;;;;5396686;26;20069;-67
2024/04/08 05:42:51;;;;;;;26.97;11.60;;;;;;;;;;5404122;26;20376;-68
2024/04/08 05:45:16;;;;;;;35.28;12.23;;;;;;;;;;5396293;26;20233;-68
2024/04/08 05:47:42;;;;;;;32.67;12.35;;;;;;;;;;5396218;26;20008;-68
2024/04/08 05:50:07;;;;;;;29.92;10.65;;;;;;;;;;5394881;26;19996;-68
2024/04/08 05:52:33;;;;;;;23.20;11.40;;;;;;;;;;5402678;26;20023;-68
2024/04/08 05:54:58;;;;;;;28.25;10.88;;;;;;;;;;5404867;26;20011;-68
2024/04/08 05:57:24;;;;;;;32.47;10.20;;;;;;;;;;5402704;26;20007;-69
2024/04/08 05:59:50;;;;;;;23.48;10.10;;;;;;;;;;5415729;26;20473;-68
2024/04/08 06:02:15;;;;;;;31.45;11.57;;;;;;;;;;5410537;26;20004;-68
2024/04/08 06:04:40;;;;;;;29.97;11.87;;;;;;;;;;5409955;26;20006;-68
2024/04/08 06:07:07;;;;;;;30.27;11.50;;;;;;;;;;5412152;26;20771;-68
2024/04/08 06:09:33;;;;;;;29.20;12.18;;;;;;;;;;5402813;26;20086;-68
2024/04/08 06:11:58;;;;;;;31.40;12.50;;;;;;;;;;5402540;26;20011;-68
2024/04/08 06:14:23;;;;;;;25.20;11.70;;;;;;;;;;5392578;26;20011;-68
2024/04/08 06:16:48;;;;;;;24.90;11.27;;;;;;;;;;5391325;26;20232;-68
2024/04/08 06:19:13;;;;;;;23.63;11.40;;;;;;;;;;5397393;26;20300;-68
2024/04/08 06:21:39;;;;;;;27.90;12.43;;;;;;;;;;5400914;26;20377;-68
2024/04/08 06:24:04;;;;;;;30.85;10.85;;;;;;;;;;5404227;26;20573;-69
2024/04/08 06:26:29;;;;;;;23.02;9.85;;;;;;;;;;5405541;26;19996;-68
2024/04/08 06:28:55;;;;;;;25.30;9.48;;;;;;;;;;5394729;26;20009;-69
2024/04/08 06:31:20;;;;;;;19.30;9.70;;;;;;;;;;5405296;26;20003;-68
2024/04/08 06:33:45;;;;;;;17.63;9.10;;;;;;;;;;5400837;26;20724;-68
2024/04/08 06:36:11;;;;;;;20.17;8.80;;;;;;;;;;5400368;26;20229;-68
2024/04/08 06:38:37;;;;;;;21.83;9.45;;;;;;;;;;5413330;26;20003;-68
2024/04/08 06:41:02;;;;;;;21.10;10.38;;;;;;;;;;5421147;26;20041;-68
2024/04/08 06:43:27;;;;;;;20.65;8.40;;;;;;;;;;5402439;26;20342;-68
2024/04/08 06:45:56;;;;;;;14.53;7.33;;;;;;;;;;5406640;26;19991;-68
2024/04/08 06:48:21;;;;;;;16.77;5.82;;;;;;;;;;5403854;26;20340;-68
2024/04/08 06:50:46;;;;;;;17.08;6.15;;;;;;;;;;5407402;26;20012;-69
2024/04/08 06:53:11;;;;;;;11.90;5.50;;;;;;;;;;5404536;26;20006;-69
2024/04/08 06:55:37;;;;;;;13.50;4.82;;;;;;;;;;5400464;26;20000;-69
2024/04/08 06:58:02;;;;;;;13.60;5.27;;;;;;;;;;5406414;26;20004;-68
2024/04/08 07:00:27;;;;;;;12.48;4.03;;;;;;;;;;5395559;26;20221;-68
2024/04/08 07:02:52;;;;;;;14.23;4.93;;;;;;;;;;5407414;26;19996;-68
2024/04/08 07:05:17;;;;;;;10.60;4.47;;;;;;;;;;5404271;26;20003;-69
2024/04/08 07:07:42;;;;;;;13.17;4.17;;;;;;;;;;5400348;26;20007;-68
2024/04/08 07:10:08;;;;;;;7.87;4.03;;;;;;;;;;5399498;26;20069;-69
2024/04/08 07:12:33;;;;;;;10.17;3.93;;;;;;;;;;5397913;26;20459;-68
2024/04/08 07:14:58;;;;;;;6.18;3.03;;;;;;;;;;5406790;26;20003;-68
2024/04/08 07:17:23;;;;;;;11.13;3.57;;;;;;;;;;5407466;26;20000;-69
2024/04/08 07:19:49;;;;;;;8.83;3.77;;;;;;;;;;5408361;26;20228;-68
2024/04/08 07:22:14;;;;;;;8.00;3.63;;;;;;;;;;5398171;26;20233;-68
2024/04/08 07:24:40;;;;;;;10.13;3.50;;;;;;;;;;5400156;26;20035;-68
2024/04/08 07:27:06;;;;;;;11.85;3.13;;;;;;;;;;5410006;26;20237;-68
2024/04/08 07:29:31;;;;;;;8.25;3.38;;;;;;;;;;5408090;26;19996;-68
2024/04/08 07:31:57;;;;;;;9.75;4.35;;;;;;;;;;5413192;26;20000;-68
2024/04/08 07:34:22;;;;;;;11.60;3.40;;;;;;;;;;5411131;26;20014;-69
2024/04/08 07:36:47;;;;;;;8.93;3.77;;;;;;;;;;5416020;26;20565;-69
2024/04/08 07:39:12;;;;;;;19.20;3.08;;;;;;;;;;5416051;26;20086;-69
2024/04/08 07:41:37;;;;;;;9.37;3.80;;;;;;;;;;5412153;26;20014;-68
2024/04/08 07:44:03;;;;;;;19.42;3.85;;;;;;;;;;5413061;26;20243;-68
2024/04/08 07:46:28;;;;;;;10.40;4.28;;;;;;;;;;5407643;26;20442;-68
2024/04/08 07:48:53;;;;;;;11.27;3.83;;;;;;;;;;5415720;26;19991;-69
2024/04/08 07:51:18;;;;;;;7.40;2.97;;;;;;;;;;5411549;26;20241;-68
2024/04/08 07:53:44;;;;;;;3.00;1.60;;;;;;;;;;5410048;26;20265;-69
2024/04/08 07:56:09;;;;;;;8.73;3.40;;;;;;;;;;5402687;26;20226;-69
2024/04/08 07:58:34;;;;;;;6.87;2.43;;;;;;;;;;5406203;26;20031;-69
2024/04/08 08:01:00;;;;;;;7.10;2.03;;;;;;;;;;5394743;26;20723;-68
2024/04/08 08:03:28;;;;;;;4.97;2.42;;;;;;;;;;5405461;26;20015;-69
2024/04/08 08:05:53;;;;;;;8.82;2.67;;;;;;;;;;5398125;26;20072;-68
2024/04/08 08:08:19;;;;;;;11.32;2.50;;;;;;;;;;5407420;26;20011;-68
2024/04/08 08:10:45;;;;;;;14.45;3.85;;;;;;;;;;5405382;26;19996;-69
2024/04/08 08:13:10;;;;;;;11.48;3.85;;;;;;;;;;5402256;26;20026;-68
2024/04/08 08:15:35;;;;;;;10.18;3.60;;;;;;;;;;5407844;26;20000;-69
2024/04/08 08:18:00;;;;;;;14.00;3.37;;;;;;;;;;5412516;26;20019;-68
2024/04/08 08:20:26;;;;;;;10.47;3.37;;;;;;;;;;5402776;26;20234;-68
2024/04/08 08:22:56;;;;;;;7.65;3.42;;;;;;;;;;5409792;26;20289;-68
2024/04/08 08:25:22;;;;;;;8.60;3.80;;;;;;;;;;5400402;26;20586;-68
2024/04/08 08:27:47;;;;;;;14.85;4.03;;;;;;;;;;5389385;26;20347;-68
2024/04/08 08:30:13;;;;;;;9.23;2.97;;;;;;;;;;5402622;26;20014;-68
2024/04/08 08:32:38;;;;;;;9.48;4.00;;;;;;;;;;5408749;26;20073;-68
2024/04/08 08:35:03;;;;;;;15.17;5.17;;;;;;;;;;5402114;26;20434;-68
2024/04/08 08:37:29;;;;;;;12.77;4.70;;;;;;;;;;5404340;26;20266;-68
2024/04/08 08:39:54;;;;;;;7.43;3.93;;;;;;;;;;5405479;26;20019;-68
2024/04/08 08:42:21;;;;;;;7.73;3.10;;;;;;;;;;5409580;26;20446;-68
2024/04/08 08:44:49;;;;;;;12.70;4.85;;;;;;;;;;5399979;26;20014;-68
2024/04/08 08:47:15;;;;;;;13.13;4.57;;;;;;;;;;5396850;26;20340;-68
2024/04/08 08:49:41;;;;;;;11.10;4.60;;;;;;;;;;5400794;26;20075;-68
2024/04/08 08:52:09;;;;;;;15.07;3.80;;;;;;;;;;5401927;26;20019;-68
2024/04/08 08:54:34;;;;;;;6.80;2.72;;;;;;;;;;5406921;26;20018;-68
2024/04/08 08:57:01;;;;;;;13.30;4.97;;;;;;;;;;5395578;26;20003;-68
2024/04/08 08:59:26;;;;;;;11.63;6.40;;;;;;;;;;5393143;26;20234;-68
2024/04/08 09:01:51;;;;;;;14.20;6.10;;;;;;;;;;5401499;26;20073;-67
2024/04/08 09:04:17;;;;;;;7.37;3.10;;;;;;;;;;5411872;26;20266;-68
2024/04/08 09:06:51;;;;;;;13.98;5.88;;;;;;;;;;5399903;26;20004;-68
2024/04/08 09:09:16;;;;;;;9.50;3.55;;;;;;;;;;5393829;26;20162;-68
2024/04/08 09:11:45;;;;;;;19.03;6.60;;;;;;;;;;5393944;26;20528;-67
2024/04/08 09:14:10;;;;;;;20.77;6.35;;;;;;;;;;5396369;26;20301;-68
2024/04/08 09:16:35;;;;;;;11.43;5.97;;;;;;;;;;5416658;26;20007;-67
2024/04/08 09:19:01;;;;;;;14.00;6.53;;;;;;;;;;5412852;26;20011;-68
2024/04/08 09:21:27;;;;;;;13.13;6.10;;;;;;;;;;5416591;26;20978;-68
2024/04/08 09:24:04;;;;;;;19.35;7.30;;;;;;;;;;5404170;26;19995;-68
2024/04/08 09:26:31;;;;;;;14.70;5.78;;;;;;;;;;5401991;26;19996;-68
2024/04/08 09:28:56;;;;;;;12.75;5.65;;;;;;;;;;5404972;26;20022;-66
2024/04/08 09:31:21;;;;;;;23.03;6.53;;;;;;;;;;5396447;26;19999;-66
2024/04/08 09:33:46;;;;;;;15.30;6.50;;;;;;;;;;5411386;26;20000;-66
2024/04/08 09:36:12;;;;;;;17.20;7.15;;;;;;;;;;5395696;26;20343;-66
2024/04/08 09:38:38;;;;;;;18.58;8.57;;;;;;;;;;5389241;26;20086;-66
2024/04/08 09:41:04;;;;;;;17.77;7.65;;;;;;;;;;5410511;26;20019;-66
2024/04/08 09:43:30;;;;;;;12.93;7.00;;;;;;;;;;5401267;26;19999;-66
2024/04/08 09:45:56;;;;;;;17.55;7.88;;;;;;;;;;5410556;26;20011;-66
2024/04/08 09:48:22;;;;;;;14.90;6.25;;;;;;;;;;5408210;26;20524;-67
2024/04/08 09:50:50;;;;;;;20.60;6.07;;;;;;;;;;5410506;26;20018;-66
2024/04/08 09:53:15;;;;;;;12.63;6.00;;;;;;;;;;5397388;26;20004;-66
2024/04/08 09:55:40;;;;;;;17.83;8.07;;;;;;;;;;5397322;26;20014;-66
2024/04/08 09:58:09;;;;;;;21.50;6.72;;;;;;;;;;5409726;26;20451;-66
2024/04/08 10:00:39;;;;;;;13.25;6.65;;;;;;;;;;5410370;26;20013;-66
2024/04/08 10:03:08;;;;;;;19.20;7.57;;;;;;;;;;5409659;26;20003;-66
2024/04/08 10:05:33;;;;;;;19.67;7.07;;;;;;;;;;5411327;26;20009;-66
2024/04/08 10:07:59;;;;;;;17.35;7.28;;;;;;;;;;5411245;26;20569;-66
2024/04/08 10:10:25;;;;;;;12.95;7.07;;;;;;;;;;5393995;26;20011;-66
2024/04/08 10:12:52;;;;;;;14.75;6.70;;;;;;;;;;5405920;26;20063;-66
2024/04/08 10:15:17;;;;;;;18.63;7.25;;;;;;;;;;5412396;26;20037;-66
2024/04/08 10:17:43;;;;;;;11.80;6.45;;;;;;;;;;5399397;26;20011;-66
2024/04/08 10:20:18;;;;;;;16.48;6.13;;;;;;;;;;5410947;26;20018;-66
2024/04/08 10:22:44;;;;;;;14.75;6.45;;;;;;;;;;5415919;26;20015;-66
2024/04/08 10:25:47;;;;;;;22.88;7.60;;;;;;;;;;5406606;26;20004;-66
2024/04/08 10:28:14;;;;;;;15.45;5.70;;;;;;;;;;5390820;26;19996;-66
2024/04/08 10:30:39;;;;;;;9.55;3.42;;;;;;;;;;5402644;26;20000;-66
2024/04/08 10:33:06;;;;;;;10.05;5.30;;;;;;;;;;5404909;26;20014;-66
2024/04/08 10:35:31;;;;;;;20.77;6.65;;;;;;;;;;5415337;26;20073;-67
2024/04/08 10:37:56;;;;;;;11.48;3.80;;;;;;;;;;5417084;26;20002;-67
2024/04/08 10:40:22;;;;;;;9.10;4.28;;;;;;;;;;5412967;26;19999;-67
2024/04/08 10:42:49;;;;;;;15.07;5.35;;;;;;;;;;5405612;26;20053;-67
2024/04/08 10:45:16;;;;;;;10.35;4.32;;;;;;;;;;5402241;26;20003;-67
2024/04/08 10:47:41;;;;;;;16.02;4.57;;;;;;;;;;5403659;26;19996;-66
2024/04/08 10:50:08;;;;;;;7.50;3.27;;;;;;;;;;5405607;26;20446;-67
2024/04/08 10:52:38;;;;;;;6.97;2.60;;;;;;;;;;5407865;26;20237;-67
2024/04/08 10:55:03;;;;;;;;;;;;;;;;;;5400537;26;20006;-69
2024/04/08 10:57:28;;;;;;;13.95;6.13;;;;;;;;;;5405792;26;19925;-66
2024/04/08 10:59:53;;;;;;;12.73;5.27;;;;;;;;;;5394894;26;19999;-67
2024/04/08 11:02:19;;;;;;;18.33;5.13;;;;;;;;;;5404146;26;20007;-66
2024/04/08 11:04:45;;;;;;;11.55;4.63;;;;;;;;;;5406485;26;20001;-66
2024/04/08 11:07:10;;;;;;;18.63;5.30;;;;;;;;;;5412429;26;20575;-66
2024/04/08 11:09:35;;;;;;;13.43;4.18;;;;;;;;;;5387940;26;19996;-67
2024/04/08 11:12:03;;;;;;;16.52;5.32;;;;;;;;;;5396875;26;20366;-67
2024/04/08 11:14:28;;;;;;;14.15;4.43;;;;;;;;;;5411521;26;20014;-67
2024/04/08 11:16:58;;;;;;;11.30;4.65;;;;;;;;;;5412080;26;20000;-67
2024/04/08 11:19:23;;;;;;;;;;;;;;;;;;5416119;26;19995;-66
2024/04/08 11:21:49;;;;;;;10.60;3.85;;;;;;;;;;5411829;26;19932;-67
2024/04/08 11:24:14;;;;;;;10.47;3.73;;;;;;;;;;5399365;26;20040;-66
2024/04/08 11:26:39;;;;;;;12.83;3.97;;;;;;;;;;5400172;26;20004;-66
2024/04/08 11:29:04;;;;;;;11.30;4.17;;;;;;;;;;5409204;26;20233;-67
2024/04/08 11:31:31;;;;;;;11.10;4.33;;;;;;;;;;5403458;26;20297;-67
2024/04/08 11:33:56;;;;;;;16.73;4.28;;;;;;;;;;5398978;26;21489;-67
2024/04/08 11:36:22;;;;;;;9.65;4.15;;;;;;;;;;5413292;26;20037;-67
2024/04/08 11:38:47;;;;;;;7.47;3.60;;;;;;;;;;5409962;26;20004;-67
2024/04/08 11:41:12;;;;;;;15.27;5.03;;;;;;;;;;5393224;26;20275;-67
2024/04/08 11:43:38;;;;;;;5.65;3.58;;;;;;;;;;5405043;26;20268;-67
2024/04/08 11:46:03;;;;;;;14.15;4.22;;;;;;;;;;5400045;26;20028;-67
2024/04/08 11:48:29;;;;;;;9.80;2.40;;;;;;;;;;5400084;26;19995;-67
2024/04/08 11:50:54;;;;;;;10.40;3.25;;;;;;;;;;5410817;26;20070;-67
2024/04/08 11:53:19;;;;;;;6.83;3.40;;;;;;;;;;5406611;26;19995;-67
2024/04/08 11:55:44;;;;;;;6.20;2.83;;;;;;;;;;5397976;26;20458;-67
2024/04/08 11:58:09;;;;;;;8.90;3.50;;;;;;;;;;5391234;26;20003;-67
2024/04/08 12:00:35;;;;;;;11.23;2.60;;;;;;;;;;5413865;26;20020;-67
2024/04/08 12:03:00;;;;;;;8.13;2.80;;;;;;;;;;5411616;26;20759;-66
2024/04/08 12:05:25;;;;;;;9.47;3.93;;;;;;;;;;5413159;26;20000;-67
2024/04/08 12:07:50;;;;;;;11.50;3.40;;;;;;;;;;5409929;26;20016;-66
2024/04/08 12:10:15;;;;;;;15.18;3.50;;;;;;;;;;5414221;26;20233;-67
2024/04/08 12:12:41;;;;;;;7.50;3.20;;;;;;;;;;5400682;26;20028;-67
2024/04/08 12:15:06;;;;;;;7.70;2.17;;;;;;;;;;5413942;26;20011;-66
2024/04/08 12:17:31;;;;;;;7.97;2.92;;;;;;;;;;5409400;26;20458;-67
2024/04/08 12:19:57;;;;;;;8.93;3.70;;;;;;;;;;5403252;26;19996;-67
2024/04/08 12:22:22;;;;;;;12.57;3.58;;;;;;;;;;5402486;26;20008;-67
2024/04/08 12:24:47;;;;;;;11.00;3.65;;;;;;;;;;5412582;26;19999;-66
2024/04/08 12:27:12;;;;;;;9.87;3.53;;;;;;;;;;5411101;26;20003;-67
2024/04/08 12:29:38;;;;;;;9.98;3.70;;;;;;;;;;5408871;26;20229;-67
2024/04/08 12:32:03;;;;;;;5.47;2.50;;;;;;;;;;5410262;26;19995;-67
2024/04/08 12:34:28;;;;;;;6.97;2.80;;;;;;;;;;5403449;26;20337;-66
2024/04/08 12:36:53;;;;;;;11.17;3.43;;;;;;;;;;5412221;26;20010;-66
2024/04/08 12:39:18;;;;;;;9.13;3.87;;;;;;;;;;5410222;26;20225;-66
2024/04/08 12:41:44;;;;;;;24.87;4.00;;;;;;;;;;5403391;26;20229;-67
2024/04/08 12:44:09;;;;;;;11.43;3.43;;;;;;;;;;5399091;26;20678;-67
2024/04/08 12:46:34;;;;;;;14.33;3.57;;;;;;;;;;5407346;26;20011;-67
2024/04/08 12:49:00;;;;;;;11.00;3.30;;;;;;;;;;5398884;26;20229;-67
2024/04/08 12:51:25;;;;;;;12.63;2.92;;;;;;;;;;5393117;26;19992;-67
2024/04/08 12:53:50;;;;;;;7.97;3.47;;;;;;;;;;5406550;26;20011;-67
2024/04/08 12:56:15;;;;;;;17.77;3.57;;;;;;;;;;5403555;26;20489;-66
2024/04/08 12:58:41;;;;;;;14.13;3.43;;;;;;;;;;5406002;26;20072;-66
2024/04/08 13:01:06;;;;;;;10.17;3.53;;;;;;;;;;5408022;26;20022;-66
2024/04/08 13:03:31;;;;;;;9.00;3.88;;;;;;;;;;5398682;26;20479;-67
2024/04/08 13:05:56;;;;;;;13.10;4.20;;;;;;;;;;5411880;26;20350;-67
2024/04/08 13:08:22;;;;;;;10.65;3.13;;;;;;;;;;5412525;26;20003;-66
2024/04/08 13:10:47;;;;;;;7.57;3.43;;;;;;;;;;5402760;26;20006;-67
2024/04/08 13:13:12;;;;;;;6.33;2.97;;;;;;;;;;5408921;26;20221;-67
2024/04/08 13:15:38;;;;;;;13.90;4.20;;;;;;;;;;5399955;26;20578;-67
2024/04/08 13:18:03;;;;;;;10.30;3.15;;;;;;;;;;5390517;26;20004;-67
2024/04/08 13:20:28;;;;;;;11.95;3.78;;;;;;;;;;5401967;26;19995;-68
2024/04/08 13:22:53;;;;;;;11.23;4.63;;;;;;;;;;5408476;26;19995;-67
2024/04/08 13:25:20;;;;;;;7.80;3.70;;;;;;;;;;5387562;26;20263;-67
2024/04/08 13:27:45;;;;;;;14.20;4.07;;;;;;;;;;5398637;26;20080;-67
2024/04/08 13:30:11;;;;;;;14.48;3.90;;;;;;;;;;5398488;26;19996;-67
2024/04/08 13:32:37;;;;;;;13.85;3.78;;;;;;;;;;5412714;26;20023;-67
2024/04/08 13:35:04;;;;;;;12.50;4.23;;;;;;;;;;5399407;26;20004;-67
2024/04/08 13:37:29;;;;;;;11.15;3.83;;;;;;;;;;5399619;26;20474;-67
2024/04/08 13:39:54;;;;;;;13.13;5.47;;;;;;;;;;5398190;26;19996;-67
2024/04/08 13:42:19;;;;;;;10.70;3.77;;;;;;;;;;5391462;26;20004;-67
2024/04/08 13:44:46;;;;;;;8.87;3.90;;;;;;;;;;5409666;26;20019;-67
2024/04/08 13:47:11;;;;;;;8.18;3.53;;;;;;;;;;5411250;26;20004;-67
2024/04/08 13:49:37;;;;;;;18.23;4.20;;;;;;;;;;5399421;26;20015;-67
2024/04/08 13:52:06;;;;;;;14.40;4.32;;;;;;;;;;5410061;26;20273;-67
2024/04/08 13:54:31;;;;;;;13.50;3.85;;;;;;;;;;5411390;26;20000;-66
2024/04/08 13:56:56;;;;;;;13.82;3.90;;;;;;;;;;5409647;26;19999;-67
2024/04/08 13:59:21;;;;;;;13.27;3.87;;;;;;;;;;5399438;26;19996;-67
2024/04/08 14:01:47;;;;;;;16.07;3.87;;;;;;;;;;5410437;26;20339;-67
2024/04/08 14:04:12;;;;;;;13.05;3.50;;;;;;;;;;5405377;26;20221;-67
2024/04/08 14:06:37;;;;;;;7.05;3.45;;;;;;;;;;5406962;26;20084;-67
2024/04/08 14:09:03;;;;;;;10.83;3.03;;;;;;;;;;5397294;26;19992;-67
2024/04/08 14:11:28;;;;;;;14.13;3.35;;;;;;;;;;5395207;26;20222;-67
2024/04/08 14:13:53;;;;;;;14.38;2.85;;;;;;;;;;5401639;26;20007;-67
2024/04/08 14:16:24;;;;;;;7.40;3.00;;;;;;;;;;5403253;26;20027;-67
2024/04/08 14:18:49;;;;;;;15.50;4.35;;;;;;;;;;5384797;26;20377;-67
2024/04/08 14:21:14;;;;;;;12.85;3.53;;;;;;;;;;5403809;26;20064;-67